Time;durP1;ratioP1;P1;durP2;ratioP2;P2;SDS_P1;SDS_P2;PMS_P1;PMS_P2;Temp;Humidity;BMP_temperature;BMP_pressure;BME280_temperature;BME280_humidity;BME280_pressure;Samples;Min_cycle;Max_cycle;Signal;HPM_P1;HPM_P2
2021/07/19 00:00:39;;;;;;;30.00;18.27;;;;;;;20.47;70.03;98610.54;125695;1093;103030;-69
2021/07/19 00:03:17;;;;;;;34.63;18.80;;;;;;;20.44;69.71;98611.77;125675;1093;103009;-70
2021/07/19 00:05:49;;;;;;;29.67;18.03;;;;;;;20.44;70.00;98600.11;125623;1092;102727;-70
2021/07/19 00:08:31;;;;;;;27.07;18.23;;;;;;;20.41;70.16;98608.58;125681;1093;103011;-69
2021/07/19 00:11:01;;;;;;;30.10;18.43;;;;;;;20.41;69.84;98597.78;125667;1092;102991;-69
2021/07/19 00:13:32;;;;;;;29.17;17.93;;;;;;;20.37;69.91;98602.73;125663;1093;103015;-70
2021/07/19 00:16:04;;;;;;;29.73;18.40;;;;;;;20.33;70.24;98610.38;125674;1096;102974;-70
2021/07/19 00:18:35;;;;;;;29.13;17.43;;;;;;;20.33;70.01;98610.38;125643;1093;103187;-70
2021/07/19 00:21:06;;;;;;;29.40;18.13;;;;;;;20.32;70.06;98613.25;125677;1092;103434;-69
2021/07/19 00:23:36;;;;;;;28.93;18.10;;;;;;;20.31;70.27;98616.97;125583;1093;102994;-70
2021/07/19 00:26:06;;;;;;;32.07;18.23;;;;;;;20.29;69.96;98622.58;125675;1093;103023;-69
2021/07/19 00:28:34;;;;;;;31.10;17.43;;;;;;;20.30;70.22;98634.20;125634;1093;103007;-68
2021/07/19 00:31:03;;;;;;;27.13;17.47;;;;;;;20.30;70.14;98626.95;125639;1093;102945;-68
2021/07/19 00:33:36;;;;;;;29.93;18.10;;;;;;;20.33;70.27;98631.13;125660;1095;103009;-68
2021/07/19 00:36:06;;;;;;;30.93;17.70;;;;;;;20.35;70.45;98626.38;125645;1092;103004;-68
2021/07/19 00:38:35;;;;;;;34.00;17.50;;;;;;;20.35;70.33;98624.54;125640;1092;102920;-69
2021/07/19 00:41:05;;;;;;;30.37;18.57;;;;;;;20.36;70.50;98628.91;125685;1093;102913;-69
2021/07/19 00:43:33;;;;;;;31.10;18.13;;;;;;;20.36;70.18;98625.36;125590;1093;103095;-69
2021/07/19 00:46:02;;;;;;;28.53;17.17;;;;;;;20.37;70.44;98624.34;125648;1093;102916;-70
2021/07/19 00:48:34;;;;;;;26.27;16.83;;;;;;;20.38;70.21;98620.61;125631;1093;102945;-69
2021/07/19 00:51:04;;;;;;;28.20;16.37;;;;;;;20.37;70.61;98627.04;125697;1092;103364;-70
2021/07/19 00:53:34;;;;;;;28.63;17.03;;;;;;;20.38;70.59;98623.31;125669;1093;103014;-70
2021/07/19 00:56:07;;;;;;;30.00;17.73;;;;;;;20.38;70.59;98628.72;125636;1093;103077;-69
2021/07/19 00:58:39;;;;;;;27.73;17.20;;;;;;;20.38;70.53;98620.61;125664;1093;102916;-69
2021/07/19 01:01:11;;;;;;;27.73;16.07;;;;;;;20.38;70.63;98621.44;125692;1093;103009;-69
2021/07/19 01:03:43;;;;;;;30.70;15.57;;;;;;;20.40;70.56;98625.81;125715;1093;103016;-70
2021/07/19 01:06:17;;;;;;;30.37;16.83;;;;;;;20.38;70.20;98621.44;125650;1096;102995;-69
2021/07/19 01:08:49;;;;;;;26.90;16.87;;;;;;;20.36;70.29;98623.52;125635;1093;102908;-70
2021/07/19 01:11:20;;;;;;;27.30;16.95;;;;;;;20.34;70.71;98614.76;125699;1093;102912;-70
2021/07/19 01:13:50;;;;;;;59.60;44.63;;;;;;;20.33;70.49;98613.08;125690;1093;103399;-70
2021/07/19 01:16:22;;;;;;;34.13;18.93;;;;;;;20.31;70.52;98615.13;125716;1093;102913;-70
2021/07/19 01:18:53;;;;;;;30.83;17.80;;;;;;;20.28;70.52;98618.20;125712;1093;103143;-69
2021/07/19 01:21:44;;;;;;;29.17;17.50;;;;;;;20.25;70.55;98613.16;125656;1093;103009;-69
2021/07/19 01:24:44;;;;;;;28.00;15.60;;;;;;;20.21;70.55;98611.86;125681;1093;103524;-69
2021/07/19 01:27:36;;;;;;;27.60;15.20;;;;;;;20.18;70.51;98621.15;125664;1093;102946;-69
2021/07/19 01:30:07;;;;;;;29.80;16.05;;;;;;;20.15;70.40;98617.99;125684;1093;103012;-71
2021/07/19 01:32:43;;;;;;;25.53;17.03;;;;;;;20.14;70.71;98619.87;125645;1093;102974;-70
2021/07/19 01:35:15;;;;;;;26.47;15.20;;;;;;;20.12;70.67;98619.21;125680;1093;102935;-69
2021/07/19 01:37:48;;;;;;;27.43;15.37;;;;;;;20.10;70.75;98618.55;125680;1093;102935;-70
2021/07/19 01:40:19;;;;;;;23.65;14.88;;;;;;;20.09;70.71;98616.88;125646;1093;103062;-70
2021/07/19 01:42:50;;;;;;;25.07;15.43;;;;;;;20.07;70.57;98619.75;125703;1093;103031;-71
2021/07/19 01:45:18;;;;;;;30.43;17.10;;;;;;;20.06;70.68;98628.05;125667;1093;103062;-69
2021/07/19 01:47:49;;;;;;;26.43;16.23;;;;;;;20.06;70.66;98625.34;125649;1093;103039;-71
2021/07/19 01:50:18;;;;;;;27.20;15.60;;;;;;;20.06;70.89;98628.05;125708;1093;103004;-69
2021/07/19 01:52:51;;;;;;;25.63;16.57;;;;;;;20.05;70.66;98629.89;125691;1092;102998;-69
2021/07/19 01:55:22;;;;;;;26.57;16.10;;;;;;;20.05;70.69;98623.66;125705;1093;103017;-70
2021/07/19 01:57:54;;;;;;;29.40;16.80;;;;;;;20.02;70.73;98632.13;125668;1093;102936;-70
2021/07/19 02:00:26;;;;;;;24.83;16.73;;;;;;;20.00;70.79;98635.00;125596;1093;103048;-71
2021/07/19 02:02:54;;;;;;;26.95;15.95;;;;;;;19.99;70.72;98630.62;125718;1093;102945;-70
2021/07/19 02:05:28;;;;;;;27.47;16.20;;;;;;;19.99;71.03;98630.62;125663;1093;102935;-70
2021/07/19 02:08:02;;;;;;;26.93;16.77;;;;;;;19.98;70.83;98631.64;125647;1093;102933;-70
2021/07/19 02:10:33;;;;;;;28.97;17.23;;;;;;;19.96;70.88;98636.41;125648;1096;103080;-69
2021/07/19 02:13:06;;;;;;;27.33;15.07;;;;;;;19.95;70.84;98639.28;125671;1093;103005;-69
2021/07/19 02:15:37;;;;;;;26.63;16.55;;;;;;;19.92;70.87;98641.31;125691;1093;103016;-69
2021/07/19 02:18:12;;;;;;;23.93;15.47;;;;;;;19.92;70.95;98635.92;125640;1093;103092;-69
2021/07/19 02:20:43;;;;;;;28.60;15.57;;;;;;;19.92;70.92;98633.22;125685;1092;103010;-70
2021/07/19 02:23:16;;;;;;;27.10;15.43;;;;;;;19.91;71.03;98620.75;125594;1093;103066;-69
2021/07/19 02:25:47;;;;;;;26.43;16.58;;;;;;;19.91;70.94;98628.84;125644;1093;102910;-70
2021/07/19 02:28:18;;;;;;;29.30;16.30;;;;;;;19.92;70.80;98640.50;125623;1093;103011;-69
2021/07/19 02:30:48;;;;;;;29.10;15.87;;;;;;;19.89;70.86;98640.86;125638;1093;103008;-68
2021/07/19 02:33:22;;;;;;;27.23;15.73;;;;;;;19.88;70.96;98636.45;125647;1093;103004;-68
2021/07/19 02:35:54;;;;;;;25.40;16.30;;;;;;;19.87;71.21;98640.17;125661;1093;102987;-70
2021/07/19 02:38:25;;;;;;;25.40;15.93;;;;;;;19.85;70.79;98639.51;125643;1093;102994;-69
2021/07/19 02:40:56;;;;;;;26.03;14.30;;;;;;;19.82;71.15;98634.47;125695;1093;103017;-68
2021/07/19 02:43:27;;;;;;;24.93;15.23;;;;;;;19.82;70.97;98629.08;125680;1093;103066;-69
2021/07/19 02:45:59;;;;;;;29.30;16.73;;;;;;;19.77;71.16;98626.91;125705;1093;103034;-69
2021/07/19 02:48:36;;;;;;;26.87;15.53;;;;;;;19.77;71.17;98640.40;125689;1092;102937;-69
2021/07/19 02:51:10;;;;;;;25.80;15.67;;;;;;;19.77;70.91;98637.70;125632;1093;103083;-72
2021/07/19 02:53:41;;;;;;;24.97;15.13;;;;;;;19.76;71.34;98641.45;125721;1093;102914;-72
2021/07/19 02:56:11;;;;;;;28.13;15.90;;;;;;;19.74;70.89;98636.22;125650;1094;103087;-69
2021/07/19 02:58:42;;;;;;;26.60;14.27;;;;;;;19.75;70.83;98645.17;125707;1093;103026;-69
2021/07/19 03:01:15;;;;;;;26.30;15.13;;;;;;;19.74;71.30;98644.31;125675;1093;103055;-69
2021/07/19 03:03:46;;;;;;;;;;;;;;;19.74;71.28;98652.41;125682;1093;102916;-69
2021/07/19 03:06:23;;;;;;;24.37;14.57;;;;;;;19.72;71.12;98646.34;125683;1092;102928;-70
2021/07/19 03:08:55;;;;;;;26.43;15.47;;;;;;;19.72;71.08;98645.53;125667;1093;103010;-69
2021/07/19 03:11:37;;;;;;;30.65;15.75;;;;;;;19.69;71.02;98646.71;125671;1093;102907;-70
2021/07/19 03:14:14;;;;;;;27.93;15.00;;;;;;;19.68;71.11;98650.42;125671;1092;103048;-70
2021/07/19 03:16:46;;;;;;;25.87;15.20;;;;;;;19.68;71.28;98649.60;125596;1093;102996;-69
2021/07/19 03:19:20;;;;;;;25.55;14.95;;;;;;;19.68;71.35;98646.91;125672;1093;103029;-70
2021/07/19 03:21:57;;;;;;;28.90;15.90;;;;;;;19.68;71.28;98650.42;125692;1093;102913;-69
2021/07/19 03:24:30;;;;;;;28.20;14.23;;;;;;;19.69;71.20;98648.59;125681;1093;103026;-70
2021/07/19 03:26:58;;;;;;;25.90;15.80;;;;;;;19.68;71.16;98669.31;125687;1094;103061;-69
2021/07/19 03:29:32;;;;;;;24.87;15.10;;;;;;;19.68;71.29;98668.49;125648;1093;103028;-68
2021/07/19 03:32:04;;;;;;;26.17;14.87;;;;;;;19.68;71.19;98668.49;125687;1096;103090;-69
2021/07/19 03:34:36;;;;;;;25.33;14.23;;;;;;;19.69;71.28;98668.30;125659;1093;102950;-70
2021/07/19 03:37:07;;;;;;;27.63;15.33;;;;;;;19.68;71.18;98666.62;125714;1093;102913;-69
2021/07/19 03:39:40;;;;;;;28.30;15.95;;;;;;;19.68;71.19;98666.62;125660;1093;103003;-69
2021/07/19 03:42:13;;;;;;;31.55;15.40;;;;;;;19.68;71.15;98671.19;125658;1092;103023;-69
2021/07/19 03:44:44;;;;;;;28.00;14.78;;;;;;;19.69;71.39;98668.30;125635;1093;103012;-69
2021/07/19 03:47:16;;;;;;;25.75;15.35;;;;;;;19.71;71.53;98670.83;125658;1096;102929;-70
2021/07/19 03:49:47;;;;;;;28.73;14.53;;;;;;;19.74;71.38;98678.56;125700;1093;103038;-69
2021/07/19 03:52:17;;;;;;;24.63;15.30;;;;;;;19.77;71.40;98678.17;125668;1093;102996;-69
2021/07/19 03:54:45;;;;;;;27.10;15.07;;;;;;;19.79;71.25;98689.63;125664;1092;103142;-68
2021/07/19 03:57:16;;;;;;;25.30;14.47;;;;;;;19.79;71.30;98693.18;125669;1093;102912;-68
2021/07/19 03:59:48;;;;;;;28.17;14.80;;;;;;;19.79;71.08;98682.39;125678;1093;103393;-68
2021/07/19 04:02:19;;;;;;;26.27;13.33;;;;;;;19.82;71.33;98688.45;125673;1093;102911;-71
2021/07/19 04:05:01;;;;;;;25.40;13.87;;;;;;;19.83;71.24;98690.13;125687;1093;103028;-72
2021/07/19 04:07:38;;;;;;;26.17;14.53;;;;;;;19.81;71.44;98690.29;125716;1093;102994;-70
2021/07/19 04:10:12;;;;;;;24.83;13.47;;;;;;;19.84;71.41;98698.02;125661;1093;103341;-69
2021/07/19 04:12:52;;;;;;;26.00;15.20;;;;;;;19.88;71.62;98693.98;125667;1093;103019;-70
2021/07/19 04:15:22;;;;;;;25.43;13.33;;;;;;;19.91;71.38;98693.63;125664;1097;102918;-72
2021/07/19 04:17:52;;;;;;;27.05;13.65;;;;;;;19.93;71.61;98690.75;125666;1097;103001;-70
2021/07/19 04:20:24;;;;;;;26.00;14.83;;;;;;;19.93;71.31;98686.19;125643;1096;103057;-71
2021/07/19 04:22:55;;;;;;;24.33;13.80;;;;;;;19.93;71.20;98686.19;125657;1097;103009;-71
2021/07/19 04:25:26;;;;;;;25.57;13.37;;;;;;;19.90;71.48;98691.94;125651;1095;102943;-72
2021/07/19 04:27:56;;;;;;;28.37;14.73;;;;;;;19.90;71.60;98685.72;125718;1095;102971;-72
2021/07/19 04:30:32;;;;;;;25.37;14.07;;;;;;;19.86;71.39;98684.37;125680;1095;102964;-72
2021/07/19 04:33:03;;;;;;;27.20;14.57;;;;;;;19.85;71.20;98682.69;125660;1096;102948;-71
2021/07/19 04:35:31;;;;;;;24.83;13.93;;;;;;;19.82;71.20;98693.84;125672;1095;102937;-70
2021/07/19 04:38:00;;;;;;;24.10;13.20;;;;;;;19.82;71.66;98691.14;125689;1096;102970;-71
2021/07/19 04:40:30;;;;;;;27.57;14.60;;;;;;;19.82;71.36;98701.94;125676;1096;102916;-71
2021/07/19 04:42:58;;;;;;;23.80;14.13;;;;;;;19.81;71.30;98697.56;125732;1096;103421;-71
2021/07/19 04:45:27;;;;;;;28.53;15.33;;;;;;;19.81;71.51;98708.36;125733;1095;103013;-72
2021/07/19 04:47:55;;;;;;;24.40;14.03;;;;;;;19.84;71.66;98702.59;125694;1095;102939;-72
2021/07/19 04:50:24;;;;;;;24.63;14.00;;;;;;;19.86;71.50;98708.66;125711;1095;102928;-72
2021/07/19 04:52:52;;;;;;;25.53;13.97;;;;;;;19.90;71.35;98702.73;125680;1096;103127;-72
2021/07/19 04:55:25;;;;;;;26.67;14.67;;;;;;;19.92;71.53;98707.97;125696;1096;103087;-71
2021/07/19 04:57:59;;;;;;;24.13;14.97;;;;;;;19.96;71.52;98703.03;125667;1096;103093;-71
2021/07/19 05:00:33;;;;;;;25.70;14.23;;;;;;;19.98;71.43;98704.52;125707;1096;103011;-71
2021/07/19 05:03:04;;;;;;;23.33;14.40;;;;;;;20.01;71.50;98704.16;125675;1096;102941;-72
2021/07/19 05:05:36;;;;;;;28.63;14.33;;;;;;;20.06;71.52;98707.16;125712;1096;103026;-71
2021/07/19 05:08:08;;;;;;;27.70;15.75;;;;;;;20.13;71.83;98709.98;125670;1096;102927;-71
2021/07/19 05:10:38;;;;;;;24.93;13.77;;;;;;;20.19;71.40;98706.53;125682;1096;103010;-69
2021/07/19 05:13:13;;;;;;;25.87;14.53;;;;;;;20.29;71.80;98710.84;125679;1095;103009;-69
2021/07/19 05:15:45;;;;;;;23.90;13.87;;;;;;;20.40;71.80;98704.14;125630;1096;102920;-72
2021/07/19 05:18:18;;;;;;;21.70;12.83;;;;;;;20.48;71.50;98696.81;125715;1096;102937;-71
2021/07/19 05:20:51;;;;;;;26.03;14.23;;;;;;;20.58;71.84;98707.34;125707;1095;102985;-72
2021/07/19 05:23:25;;;;;;;23.08;13.63;;;;;;;20.68;71.84;98713.31;125622;1095;102942;-69
2021/07/19 05:25:56;;;;;;;22.10;13.57;;;;;;;20.79;71.80;98714.73;125651;1096;103122;-72
2021/07/19 05:28:24;;;;;;;21.43;12.53;;;;;;;20.86;71.76;98714.82;125713;1097;103026;-72
2021/07/19 05:30:55;;;;;;;24.17;13.50;;;;;;;20.91;72.24;98712.40;125697;1097;102914;-71
2021/07/19 05:33:26;;;;;;;26.40;15.07;;;;;;;20.96;71.49;98714.55;125697;1095;102938;-70
2021/07/19 05:35:55;;;;;;;28.00;13.80;;;;;;;20.99;71.67;98711.45;125668;1097;103122;-73
2021/07/19 05:38:25;;;;;;;28.33;14.60;;;;;;;21.02;71.80;98702.97;125655;1096;102919;-71
2021/07/19 05:40:53;;;;;;;24.73;13.27;;;;;;;21.06;71.81;98706.97;125691;1097;103849;-71
2021/07/19 05:43:22;;;;;;;23.87;13.83;;;;;;;21.11;71.81;98701.84;125733;1097;102912;-73
2021/07/19 05:45:50;;;;;;;26.87;14.50;;;;;;;21.14;71.87;98706.05;125676;1095;102986;-72
2021/07/19 05:48:19;;;;;;;24.10;14.03;;;;;;;21.21;71.98;98712.35;125679;1095;103062;-69
2021/07/19 05:50:47;;;;;;;24.03;13.27;;;;;;;21.26;71.88;98712.63;125670;1095;103099;-70
2021/07/19 05:53:16;;;;;;;25.13;13.73;;;;;;;21.27;71.86;98711.59;125671;1096;103048;-70
2021/07/19 05:55:50;;;;;;;24.70;13.70;;;;;;;21.31;71.68;98722.04;125673;1096;102997;-69
2021/07/19 05:58:18;;;;;;;23.13;13.40;;;;;;;21.32;71.63;98718.30;125702;1094;102891;-67
2021/07/19 06:00:47;;;;;;;25.13;13.07;;;;;;;21.31;71.76;98722.89;125658;1094;102994;-69
2021/07/19 06:03:17;;;;;;;25.23;14.43;;;;;;;21.33;71.79;98726.25;125658;1096;102987;-68
2021/07/19 06:05:47;;;;;;;28.57;14.63;;;;;;;21.35;71.75;98731.45;125668;1096;102913;-70
2021/07/19 06:08:18;;;;;;;23.47;14.27;;;;;;;21.37;71.64;98730.25;125694;1096;102938;-68
2021/07/19 06:10:47;;;;;;;25.83;13.53;;;;;;;21.37;71.68;98732.96;125682;1096;103067;-69
2021/07/19 06:13:15;;;;;;;23.50;14.07;;;;;;;21.40;71.58;98732.55;125623;1097;103014;-69
2021/07/19 06:15:46;;;;;;;25.97;13.27;;;;;;;21.41;71.92;98742.34;125654;1095;103032;-68
2021/07/19 06:18:19;;;;;;;22.20;12.80;;;;;;;21.43;71.61;98742.17;125684;1096;103026;-69
2021/07/19 06:20:47;;;;;;;28.83;17.07;;;;;;;21.45;71.65;98739.27;125691;1096;102888;-69
2021/07/19 06:23:15;;;;;;;35.37;24.03;;;;;;;21.46;71.79;98736.38;125667;1094;103137;-69
2021/07/19 06:25:44;;;;;;;27.47;14.90;;;;;;;21.48;71.50;98737.03;125701;1095;103224;-70
2021/07/19 06:28:12;;;;;;;22.70;12.83;;;;;;;21.50;71.69;98734.13;126154;1095;103008;-71
2021/07/19 06:30:41;;;;;;;22.25;13.25;;;;;;;21.53;71.39;98747.27;125749;1095;103067;-74
2021/07/19 06:33:10;;;;;;;23.77;13.33;;;;;;;21.54;71.57;98747.09;125701;1096;103438;-70
2021/07/19 06:35:38;;;;;;;24.47;13.30;;;;;;;21.57;71.43;98743.16;125713;1095;103142;-71
2021/07/19 06:38:10;;;;;;;23.73;13.30;;;;;;;21.59;71.43;98742.98;125690;1095;103085;-72
2021/07/19 06:40:39;;;;;;;23.93;13.03;;;;;;;21.63;71.68;98744.28;125720;1096;102913;-71
2021/07/19 06:43:07;;;;;;;21.53;13.37;;;;;;;21.67;71.37;98746.43;125730;1095;102919;-71
2021/07/19 06:45:36;;;;;;;23.33;14.23;;;;;;;21.73;71.68;98752.11;125746;1096;103540;-69
2021/07/19 06:48:05;;;;;;;22.60;12.67;;;;;;;21.78;71.27;98755.08;125981;1096;103412;-73
2021/07/19 06:50:33;;;;;;;22.47;13.20;;;;;;;21.83;71.81;98752.61;125716;1094;103042;-73
2021/07/19 06:53:03;;;;;;;22.73;13.03;;;;;;;21.91;71.24;98754.38;125634;1094;102922;-72
2021/07/19 06:55:34;;;;;;;21.20;12.17;;;;;;;21.95;71.40;98756.49;125712;1096;103087;-72
2021/07/19 06:58:03;;;;;;;20.60;12.10;;;;;;;22.00;71.65;98759.46;125657;1095;103041;-72
2021/07/19 07:00:32;;;;;;;22.80;12.13;;;;;;;22.04;71.39;98761.78;125699;1094;102959;-70
2021/07/19 07:03:04;;;;;;;;;;;;;;;22.11;71.38;98758.09;125705;1095;103073;-71
2021/07/19 07:05:37;;;;;;;24.15;12.40;;;;;;;22.20;71.53;98769.66;125731;1095;103023;-71
2021/07/19 07:08:10;;;;;;;21.77;11.83;;;;;;;22.29;71.26;98754.92;125686;1096;102913;-72
2021/07/19 07:10:39;;;;;;;22.30;12.30;;;;;;;22.56;71.12;98762.45;125685;1094;103429;-72
2021/07/19 07:13:10;;;;;;;26.57;16.13;;;;;;;23.35;70.16;98752.31;125769;1096;103136;-73
2021/07/19 07:15:41;;;;;;;22.20;12.77;;;;;;;23.57;71.13;98755.73;125647;1097;103069;-72
2021/07/19 07:18:11;;;;;;;21.37;11.83;;;;;;;23.82;70.73;98754.33;125705;1096;103032;-72
2021/07/19 07:20:40;;;;;;;19.83;12.33;;;;;;;24.46;70.35;98755.64;125675;1094;102939;-72
2021/07/19 07:23:09;;;;;;;19.33;10.87;;;;;;;25.16;70.49;98750.74;125698;1096;102919;-73
2021/07/19 07:25:38;;;;;;;19.13;10.23;;;;;;;25.64;70.25;98753.08;125690;1095;103036;-71
2021/07/19 07:28:06;;;;;;;20.23;10.23;;;;;;;26.28;70.12;98754.99;125716;1096;103503;-72
2021/07/19 07:30:37;;;;;;;20.03;10.83;;;;;;;27.02;69.94;98759.76;125726;1096;102919;-72
2021/07/19 07:33:06;;;;;;;19.15;10.00;;;;;;;27.30;70.09;98758.41;125697;1096;103013;-71
2021/07/19 07:35:40;;;;;;;19.67;10.20;;;;;;;27.60;69.76;98763.09;125708;1096;102914;-73
2021/07/19 07:38:09;;;;;;;16.85;9.05;;;;;;;28.36;69.56;98762.61;125688;1095;102916;-75
2021/07/19 07:40:38;;;;;;;18.77;9.60;;;;;;;28.74;69.96;98763.23;125683;1096;103004;-74
2021/07/19 07:43:06;;;;;;;17.37;9.50;;;;;;;28.71;69.42;98761.83;125764;1096;103041;-70
2021/07/19 07:45:38;;;;;;;18.57;9.00;;;;;;;28.54;69.34;98764.41;125703;1096;103071;-68
2021/07/19 07:48:12;;;;;;;17.35;8.85;;;;;;;28.30;69.24;98763.58;125740;1096;102919;-68
2021/07/19 07:50:40;;;;;;;16.23;8.33;;;;;;;27.95;68.61;98765.13;125715;1095;102942;-75
2021/07/19 07:53:11;;;;;;;16.07;8.43;;;;;;;27.45;68.22;98772.48;125706;1095;103066;-77
2021/07/19 07:55:40;;;;;;;17.57;9.97;;;;;;;27.09;68.63;98771.44;125713;1095;102722;-77
2021/07/19 07:58:09;;;;;;;18.10;10.37;;;;;;;26.86;68.55;98764.77;125702;1096;102933;-76
2021/07/19 08:00:38;;;;;;;17.53;9.90;;;;;;;26.67;68.19;98772.06;125736;1096;103103;-75
2021/07/19 08:03:07;;;;;;;15.63;8.83;;;;;;;26.48;68.04;98778.52;125718;1095;103015;-76
2021/07/19 08:05:36;;;;;;;17.53;9.90;;;;;;;26.35;68.08;98771.28;125689;1096;103158;-74
2021/07/19 08:08:05;;;;;;;17.70;9.30;;;;;;;26.23;67.88;98776.63;125695;1096;103065;-74
2021/07/19 08:10:33;;;;;;;20.50;10.03;;;;;;;26.03;67.81;98779.46;125643;1095;103008;-80
2021/07/19 08:13:04;;;;;;;18.37;9.70;;;;;;;25.89;67.74;98765.91;125703;1094;103023;-76
2021/07/19 08:15:34;;;;;;;20.20;10.17;;;;;;;25.76;67.41;98764.11;125680;1095;102964;-81
2021/07/19 08:18:03;;;;;;;18.17;9.53;;;;;;;25.70;67.37;98770.42;125603;1095;103074;-77
2021/07/19 08:20:32;;;;;;;16.03;8.60;;;;;;;25.66;67.25;98766.47;125663;1094;102913;-74
2021/07/19 08:23:26;;;;;;;17.60;9.83;;;;;;;25.62;67.20;98762.50;125568;1095;102911;-76
2021/07/19 08:25:54;;;;;;;19.30;10.90;;;;;;;25.51;67.25;98769.47;125616;1095;103012;-73
2021/07/19 08:28:28;;;;;;;24.40;15.77;;;;;;;25.44;67.23;98761.34;125676;1096;102943;-76
2021/07/19 08:30:56;;;;;;;21.90;12.23;;;;;;;25.43;67.31;98759.64;125650;1094;103179;-74
2021/07/19 08:33:25;;;;;;;18.37;10.70;;;;;;;25.38;67.07;98763.00;125686;1095;102929;-74
2021/07/19 08:35:53;;;;;;;21.73;10.63;;;;;;;25.30;66.81;98759.69;125716;1095;103012;-73
2021/07/19 08:38:21;;;;;;;31.07;11.20;;;;;;;25.15;67.09;98758.06;125719;1094;103000;-75
2021/07/19 08:40:51;;;;;;;18.43;9.83;;;;;;;25.14;66.93;98761.83;125750;1096;103132;-74
2021/07/19 08:43:42;;;;;;;18.50;10.00;;;;;;;25.10;66.48;98757.86;125697;1096;102911;-73
2021/07/19 08:46:12;;;;;;;19.07;10.07;;;;;;;24.96;66.44;98754.34;125678;1095;103110;-74
2021/07/19 08:48:41;;;;;;;19.77;10.47;;;;;;;24.89;66.35;98754.38;125681;1096;102998;-72
2021/07/19 08:51:09;;;;;;;19.30;9.60;;;;;;;24.82;66.20;98762.55;125724;1095;103011;-73
2021/07/19 08:53:38;;;;;;;17.53;9.43;;;;;;;24.77;66.07;98758.78;125687;1095;103061;-73
2021/07/19 08:56:08;;;;;;;18.83;9.10;;;;;;;24.68;66.39;98750.81;125687;1092;102930;-74
2021/07/19 08:58:36;;;;;;;18.63;9.50;;;;;;;24.62;66.44;98748.96;125735;1096;102998;-73
2021/07/19 09:01:06;;;;;;;18.37;9.03;;;;;;;24.56;66.07;98749.80;125696;1096;103438;-74
2021/07/19 09:03:36;;;;;;;16.90;9.20;;;;;;;24.52;65.93;98748.55;125753;1095;103004;-70
2021/07/19 09:06:05;;;;;;;17.33;9.10;;;;;;;24.49;66.37;98749.78;125656;1096;103083;-74
2021/07/19 09:08:52;;;;;;;22.50;12.05;;;;;;;24.49;66.43;98749.78;125669;1096;103209;-73
2021/07/19 09:11:23;;;;;;;20.03;9.47;;;;;;;24.47;66.42;98741.00;125720;1095;103025;-74
2021/07/19 09:14:05;;;;;;;19.17;9.67;;;;;;;24.49;65.98;98748.97;125722;1094;102911;-73
2021/07/19 09:16:47;;;;;;;19.23;9.57;;;;;;;24.48;66.18;98750.83;125748;1096;102939;-74
2021/07/19 09:19:24;;;;;;;18.37;9.63;;;;;;;24.45;65.88;98750.43;125709;1096;102968;-74
2021/07/19 09:22:01;;;;;;;19.90;8.97;;;;;;;24.44;66.16;98740.60;125672;1096;102913;-73
2021/07/19 09:24:36;;;;;;;19.07;9.50;;;;;;;24.41;65.98;98733.72;125700;1096;102995;-74
2021/07/19 09:27:06;;;;;;;19.83;10.07;;;;;;;24.45;66.07;98734.12;125658;1096;103071;-74
2021/07/19 09:29:38;;;;;;;17.73;9.70;;;;;;;24.47;65.72;98730.13;125661;1096;103013;-74
2021/07/19 09:32:07;;;;;;;19.13;9.97;;;;;;;24.52;66.27;98727.62;125690;1096;103000;-75
2021/07/19 09:34:37;;;;;;;25.85;16.25;;;;;;;24.59;66.25;98724.91;125665;1096;103164;-74
2021/07/19 09:37:11;;;;;;;23.53;15.00;;;;;;;24.64;65.63;98727.84;125701;1096;103012;-74
2021/07/19 09:39:50;;;;;;;21.20;10.07;;;;;;;24.67;65.52;98724.66;125694;1097;104095;-74
2021/07/19 09:42:24;;;;;;;20.93;9.27;;;;;;;24.67;65.55;98726.56;125683;1095;103303;-74
2021/07/19 09:45:00;;;;;;;16.97;8.70;;;;;;;24.64;65.56;98726.98;125674;1096;103112;-74
2021/07/19 09:47:36;;;;;;;18.60;9.17;;;;;;;24.53;66.00;98729.30;125654;1096;103032;-78
2021/07/19 09:50:17;;;;;;;20.47;9.50;;;;;;;24.50;65.50;98718.84;125711;1096;102916;-74
2021/07/19 09:52:47;;;;;;;17.57;9.23;;;;;;;24.49;65.84;98721.78;125803;1096;103065;-73
2021/07/19 09:55:26;;;;;;;20.97;9.53;;;;;;;24.45;65.80;98726.81;125743;1095;103034;-74
2021/07/19 09:58:08;;;;;;;18.87;8.60;;;;;;;24.35;65.85;98724.50;125714;1096;103001;-74
2021/07/19 10:00:47;;;;;;;20.07;8.87;;;;;;;24.27;65.67;98724.70;125702;1095;103079;-74
2021/07/19 10:03:17;;;;;;;18.73;9.17;;;;;;;24.19;65.32;98727.66;125745;1094;103007;-73
2021/07/19 10:05:47;;;;;;;18.13;8.17;;;;;;;24.14;65.90;98711.97;125689;1095;102941;-69
2021/07/19 10:08:21;;;;;;;15.73;7.97;;;;;;;24.12;65.67;98711.34;125702;1095;103377;-68
2021/07/19 10:10:50;;;;;;;17.75;8.25;;;;;;;24.12;65.66;98713.23;125716;1095;103065;-68
2021/07/19 10:13:33;;;;;;;21.17;9.53;;;;;;;24.11;65.46;98716.99;125589;1096;103172;-66
2021/07/19 10:16:04;;;;;;;18.20;8.70;;;;;;;24.12;65.44;98713.23;125731;1096;102913;-66
2021/07/19 10:18:36;;;;;;;17.17;8.00;;;;;;;24.08;65.57;98710.92;125795;1096;102917;-76
2021/07/19 10:21:06;;;;;;;17.47;7.33;;;;;;;23.98;65.62;98710.50;125757;1095;102937;-79
2021/07/19 10:23:35;;;;;;;14.80;7.43;;;;;;;23.90;64.91;98707.95;125732;1096;102911;-77
2021/07/19 10:26:05;;;;;;;18.37;7.87;;;;;;;23.87;65.33;98708.36;125614;1095;102836;-75
2021/07/19 10:28:34;;;;;;;16.57;8.27;;;;;;;23.81;65.36;98710.03;125643;1095;103002;-75
2021/07/19 10:31:04;;;;;;;15.57;7.67;;;;;;;23.81;65.20;98711.92;125383;1095;103555;-70
2021/07/19 10:33:35;;;;;;;18.00;7.73;;;;;;;23.84;65.40;98717.77;125749;1096;103091;-71
2021/07/19 10:36:06;;;;;;;15.90;7.23;;;;;;;23.86;65.50;98721.11;125652;1096;103135;-71
2021/07/19 10:38:36;;;;;;;16.27;6.67;;;;;;;23.87;65.61;98722.79;125749;1093;102998;-75
2021/07/19 10:41:05;;;;;;;18.10;6.50;;;;;;;23.86;65.52;98718.40;125658;1095;103500;-72
2021/07/19 10:43:34;;;;;;;16.70;6.70;;;;;;;23.86;65.38;98712.11;125664;1094;103090;-70
2021/07/19 10:46:11;;;;;;;16.47;6.93;;;;;;;23.82;65.39;98703.56;125636;1095;103023;-70
2021/07/19 10:48:43;;;;;;;13.67;6.73;;;;;;;23.81;65.34;98703.78;125659;1095;103010;-70
2021/07/19 10:51:23;;;;;;;24.40;7.30;;;;;;;23.82;65.29;98703.56;125642;1095;103154;-70
2021/07/19 10:53:54;;;;;;;16.80;6.83;;;;;;;23.83;65.69;98709.84;125684;1095;102916;-70
2021/07/19 10:56:29;;;;;;;17.25;7.45;;;;;;;23.81;65.43;98709.21;125657;1096;103023;-69
2021/07/19 10:58:58;;;;;;;16.90;7.00;;;;;;;23.82;65.51;98711.70;125658;1096;103003;-69
2021/07/19 11:01:30;;;;;;;17.63;6.73;;;;;;;23.85;65.83;98713.16;125622;1095;103153;-71
2021/07/19 11:04:14;;;;;;;16.55;6.95;;;;;;;23.86;65.34;98709.40;125631;1094;102982;-69
2021/07/19 11:06:48;;;;;;;16.05;6.33;;;;;;;23.86;65.35;98707.53;125697;1095;103007;-69
2021/07/19 11:09:21;;;;;;;14.83;6.83;;;;;;;23.88;65.21;98707.31;125669;1096;102912;-69
2021/07/19 11:11:49;;;;;;;15.00;6.30;;;;;;;23.92;65.88;98719.44;125685;1096;101816;-69
2021/07/19 11:14:21;;;;;;;15.70;6.57;;;;;;;23.93;65.50;98719.25;125691;1094;102967;-69
2021/07/19 11:16:54;;;;;;;20.03;7.37;;;;;;;23.98;65.23;98710.50;125645;1096;103071;-69
2021/07/19 11:19:39;;;;;;;19.63;7.57;;;;;;;24.04;65.28;98714.28;125682;1096;102938;-69
2021/07/19 11:22:23;;;;;;;16.67;7.37;;;;;;;24.09;65.58;98709.03;125615;1095;103019;-69
2021/07/19 11:25:16;;;;;;;20.33;9.03;;;;;;;24.17;65.63;98710.73;125710;1096;103087;-70